Oryu Maru — JL5702 — position and weather

sailwx.info

Track history (hours):
 
Tides and Currents Weather Stations Pressure Air Temp Water Temp Dewpoint Dewpoint Depression Visibility Wind Speed Wind Dir Waves Ship Positions

Oryu Maru

Last reported at 2017-Dec-10 00:34 UTC. Time now 2017-Dec-14 16:55 UTC.
Position N 34°27' E 134°03'.

Length 115 m; draft 5 m.

Type: Cargo ship. MMSI: 431500955.

Date/timePositionNaut miles runAvg speedWind from/ knotsBaromVisibWave heightAir tempDewpointWater temp
2017-Dec-10 00:34N 34°27' E 134°03'415.8
2017-Dec-10 00:18N 34°26' E 134°08'516.1
2017-Dec-09 23:58N 34°24' E 134°15'716.3
2017-Dec-09 23:30N 34°22' E 134°23'816.1
2017-Dec-09 23:00N 34°18' E 134°32'815.3
2017-Dec-09 22:30N 34°14' E 134°39'715.0
2017-Dec-09 22:00N 34°08' E 134°45'815.7
2017-Dec-09 21:29N 34°01' E 134°50'816.2
2017-Dec-09 21:00N 33°55' E 134°56'10811.6
2017-Dec-09 11:43N 34°36' E 136°56'516.5
2017-Dec-09 11:23N 34°39' E 136°51'616.6
2017-Dec-09 11:00N 34°45' E 136°47'816.1
2017-Dec-09 10:30N 34°53' E 136°46'815.0
2017-Dec-09 10:00N 34°60' E 136°49'510.7
2017-Dec-09 09:30N 35°04' E 136°53'0 0.0
2017-Dec-09 08:59N 35°04' E 136°53'0 0.0
2017-Dec-09 08:29N 35°04' E 136°53'0 0.0
2017-Dec-09 07:59N 35°04' E 136°53'0 0.0
2017-Dec-09 07:29N 35°04' E 136°53'0 0.0
2017-Dec-09 06:59N 35°04' E 136°53'0 0.0
2017-Dec-09 06:29N 35°04' E 136°53'0 0.0
2017-Dec-09 05:59N 35°04' E 136°53'0 0.0
2017-Dec-09 05:29N 35°04' E 136°53'0 0.0
2017-Dec-09 04:56N 35°04' E 136°53'0 0.0
2017-Dec-09 04:29N 35°04' E 136°53'0 0.0
2017-Dec-09 04:00N 35°04' E 136°53'1 1.1
2017-Dec-09 03:30N 35°03' E 136°53'713.7
2017-Dec-09 03:01N 34°58' E 136°48'714.0
2017-Dec-09 02:31N 34°51' E 136°47'714.1
2017-Dec-09 02:01N 34°44' E 136°50'1613.9
2017-Dec-09 00:52N 34°32' E 137°03'5514.5
2017-Dec-08 21:06N 34°31' E 138°09'213.5
2017-Dec-08 20:58N 34°31' E 138°11'713.1
2017-Dec-08 20:28N 34°32' E 138°19'613.7
2017-Dec-08 19:59N 34°32' E 138°27'713.6
2017-Dec-08 19:30N 34°32' E 138°35'913.7
2017-Dec-08 18:52N 34°32' E 138°46'513.5
2017-Dec-08 18:30N 34°33' E 138°52'612.8
2017-Dec-08 18:00N 34°34' E 138°59'713.7
2017-Dec-08 17:30N 34°39' E 139°06'714.1
2017-Dec-08 16:59N 34°45' E 139°11'612.9
2017-Dec-08 16:30N 34°49' E 139°17'713.0
2017-Dec-08 15:59N 34°54' E 139°22'613.2
2017-Dec-08 15:30N 34°58' E 139°28'714.7
2017-Dec-08 15:01N 35°03' E 139°35'815.0
2017-Dec-08 14:30N 35°08' E 139°42'714.5
2017-Dec-08 14:00N 35°14' E 139°46'612.9
2017-Dec-08 13:31N 35°20' E 139°43'714.6
2017-Dec-08 13:01N 35°27' E 139°43'1 2.0
2017-Dec-08 12:30N 35°28' E 139°43'0 0.0
2017-Dec-08 12:00N 35°28' E 139°43'0 0.0
2017-Dec-08 11:30N 35°28' E 139°43'0 0.0
2017-Dec-08 11:00N 35°28' E 139°43'0 0.1
2017-Dec-08 10:30N 35°28' E 139°43'0 0.1
2017-Dec-08 10:00N 35°28' E 139°43'0 0.0
2017-Dec-08 09:30N 35°28' E 139°43'0 0.1
2017-Dec-08 09:00N 35°28' E 139°43'0 0.0
2017-Dec-08 08:30N 35°28' E 139°43'0 0.1
2017-Dec-08 08:00N 35°28' E 139°43'0 0.1
2017-Dec-08 07:30N 35°28' E 139°43'0 0.0
2017-Dec-08 07:00N 35°28' E 139°43'0 0.1
2017-Dec-08 06:30N 35°28' E 139°43'0 0.0
2017-Dec-08 06:00N 35°28' E 139°43'0 0.0
2017-Dec-08 05:30N 35°28' E 139°43'4 7.6
2017-Dec-08 05:01N 35°27' E 139°47'814.2
2017-Dec-08 04:26N 35°33' E 139°54'613.9
2017-Dec-08 04:00N 35°38' E 139°59'3 0.4
2017-Dec-07 21:33N 35°40' E 139°57'0 4.4
2017-Dec-07 21:30N 35°40' E 139°57'4 7.1
2017-Dec-07 21:00N 35°37' E 139°58'0 0.3
2017-Dec-07 20:13N 35°37' E 139°58'0 0.0
2017-Dec-07 19:55N 35°37' E 139°58'0 0.0
2017-Dec-07 19:19N 35°37' E 139°58'0 0.0
2017-Dec-07 18:55N 35°37' E 139°58'0 0.0
2017-Dec-07 18:25N 35°37' E 139°58'0 0.0
2017-Dec-07 17:55N 35°37' E 139°58'0 0.1
2017-Dec-07 17:30N 35°37' E 139°58'713.2
2017-Dec-07 17:00N 35°31' E 139°53'714.5
2017-Dec-07 16:31N 35°25' E 139°48'612.9
2017-Dec-07 16:00N 35°20' E 139°44'611.9
2017-Dec-07 15:30N 35°14' E 139°47'713.7
2017-Dec-07 15:00N 35°07' E 139°46'714.6
2017-Dec-07 14:31N 35°01' E 139°40'815.5
2017-Dec-07 14:01N 34°57' E 139°32'816.4
2017-Dec-07 13:31N 34°53' E 139°24'1016.5
2017-Dec-07 12:53N 34°46' E 139°14'616.2
2017-Dec-07 12:30N 34°42' E 139°09'815.2
2017-Dec-07 11:57N 34°36' E 139°01'614.9
2017-Dec-07 11:30N 34°32' E 138°55'1315.9
2017-Dec-07 10:41N 34°30' E 138°39'316.4
2017-Dec-07 10:30N 34°29' E 138°35'18313.1
2017-Dec-06 20:30N 33°50' E 134°59'  
2017-Dec-04 10:23N 35°04' E 136°53'0 0.0
2017-Dec-04 09:59N 35°04' E 136°53'0 0.0
2017-Dec-04 09:29N 35°04' E 136°53'0 0.0
2017-Dec-04 08:59N 35°04' E 136°53'0 0.0
2017-Dec-04 08:29N 35°04' E 136°53'0 0.0
2017-Dec-04 07:59N 35°04' E 136°53'0 0.0
2017-Dec-04 07:29N 35°04' E 136°53'0 0.0
2017-Dec-04 06:59N 35°04' E 136°53'0 0.3
2017-Dec-04 06:30N 35°04' E 136°53'611.6
2017-Dec-04 06:01N 35°00' E 136°47'714.1
2017-Dec-04 05:30N 34°53' E 136°47'714.5
2017-Dec-04 05:00N 34°46' E 136°49'714.4
2017-Dec-04 04:29N 34°40' E 136°54'3011.7
2017-Dec-04 01:56N 34°10' E 136°48'9211.6
2017-Dec-03 17:59N 33°50' E 134°60'714.5
2017-Dec-03 17:29N 33°56' E 134°54'715.2
2017-Dec-03 17:00N 34°02' E 134°49'815.2
2017-Dec-03 16:30N 34°08' E 134°44'916.7
2017-Dec-03 15:57N 34°16' E 134°38'715.2
2017-Dec-03 15:30N 34°19' E 134°31'815.2
2017-Dec-03 15:00N 34°21' E 134°22'12 0.7
2017-Dec-02 20:38N 34°26' E 134°08'517.6
2017-Dec-02 20:22N 34°25' E 134°13'617.4
2017-Dec-02 20:00N 34°22' E 134°20'816.8
2017-Dec-02 19:30N 34°18' E 134°29'816.9
2017-Dec-02 19:01N 34°15' E 134°39'917.1
2017-Dec-02 18:30N 34°08' E 134°45'816.2
2017-Dec-02 18:00N 34°02' E 134°51'816.5
2017-Dec-02 17:30N 33°55' E 134°57'916.4
2017-Dec-02 16:58N 33°48' E 135°04'10611.9
2017-Dec-02 08:04N 34°36' E 136°58'116.8
2017-Dec-02 08:00N 34°37' E 136°58'815.7
2017-Dec-02 07:30N 34°41' E 137°06'8 0.8
2017-Dec-01 21:28N 34°44' E 137°15'2 1.2
2017-Dec-01 19:32N 34°43' E 137°12'0 0.0
2017-Dec-01 19:20N 34°43' E 137°12'0 0.0
2017-Dec-01 18:56N 34°43' E 137°12'0 0.0
2017-Dec-01 10:32N 34°43' E 137°12'411.3
2017-Dec-01 10:09N 34°42' E 137°07'3611.8
2017-Dec-01 07:06N 34°09' E 136°48'314.6
2017-Dec-01 06:56N 34°08' E 136°46'8912.0
2017-Nov-30 23:29N 33°51' E 135°00'915.0
2017-Nov-30 22:53N 33°58' E 134°53'615.4
2017-Nov-30 22:30N 34°03' E 134°48'1015.2
2017-Nov-30 21:52N 34°11' E 134°42'514.3
2017-Nov-30 21:30N 34°15' E 134°38'612.7
2017-Nov-30 21:00N 34°20' E 134°33'1 1.3
2017-Nov-30 20:30N 34°20' E 134°32'2 1.1
2017-Nov-30 18:54N 34°20' E 134°30'511.9
2017-Nov-30 18:30N 34°21' E 134°25'1212.7
2017-Nov-30 17:34N 34°25' E 134°11'3 0.2
2017-Nov-30 01:05N 34°26' E 134°08'414.7
2017-Nov-30 00:48N 34°24' E 134°13'  
Track history (hours):
 
Tides and Currents Weather Stations Pressure Air Temp Water Temp Dewpoint Dewpoint Depression Visibility Wind Speed Wind Dir Waves Ship Positions

Oryu Maru

Last reported at 2017-Dec-10 00:34 UTC. Time now 2017-Dec-14 16:55 UTC.
Position N 34°27' E 134°03'.

Length 115 m; draft 5 m.

Type: Cargo ship. MMSI: 431500955.

Date/timePositionNaut miles runAvg speedWind from/ knotsBaromVisibWave heightAir tempDewpointWater temp
2017-Dec-10 00:34N 34°27' E 134°03'415.8
2017-Dec-10 00:18N 34°26' E 134°08'516.1
2017-Dec-09 23:58N 34°24' E 134°15'716.3
2017-Dec-09 23:30N 34°22' E 134°23'816.1
2017-Dec-09 23:00N 34°18' E 134°32'815.3
2017-Dec-09 22:30N 34°14' E 134°39'715.0
2017-Dec-09 22:00N 34°08' E 134°45'815.7
2017-Dec-09 21:29N 34°01' E 134°50'816.2
2017-Dec-09 21:00N 33°55' E 134°56'10811.6
2017-Dec-09 11:43N 34°36' E 136°56'516.5
2017-Dec-09 11:23N 34°39' E 136°51'616.6
2017-Dec-09 11:00N 34°45' E 136°47'816.1
2017-Dec-09 10:30N 34°53' E 136°46'815.0
2017-Dec-09 10:00N 34°60' E 136°49'510.7
2017-Dec-09 09:30N 35°04' E 136°53'0 0.0
2017-Dec-09 08:59N 35°04' E 136°53'0 0.0
2017-Dec-09 08:29N 35°04' E 136°53'0 0.0
2017-Dec-09 07:59N 35°04' E 136°53'0 0.0
2017-Dec-09 07:29N 35°04' E 136°53'0 0.0
2017-Dec-09 06:59N 35°04' E 136°53'0 0.0
2017-Dec-09 06:29N 35°04' E 136°53'0 0.0
2017-Dec-09 05:59N 35°04' E 136°53'0 0.0
2017-Dec-09 05:29N 35°04' E 136°53'0 0.0
2017-Dec-09 04:56N 35°04' E 136°53'0 0.0
2017-Dec-09 04:29N 35°04' E 136°53'0 0.0
2017-Dec-09 04:00N 35°04' E 136°53'1 1.1
2017-Dec-09 03:30N 35°03' E 136°53'713.7
2017-Dec-09 03:01N 34°58' E 136°48'714.0
2017-Dec-09 02:31N 34°51' E 136°47'714.1
2017-Dec-09 02:01N 34°44' E 136°50'1613.9
2017-Dec-09 00:52N 34°32' E 137°03'5514.5
2017-Dec-08 21:06N 34°31' E 138°09'213.5
2017-Dec-08 20:58N 34°31' E 138°11'713.1
2017-Dec-08 20:28N 34°32' E 138°19'613.7
2017-Dec-08 19:59N 34°32' E 138°27'713.6
2017-Dec-08 19:30N 34°32' E 138°35'913.7
2017-Dec-08 18:52N 34°32' E 138°46'513.5
2017-Dec-08 18:30N 34°33' E 138°52'612.8
2017-Dec-08 18:00N 34°34' E 138°59'713.7
2017-Dec-08 17:30N 34°39' E 139°06'714.1
2017-Dec-08 16:59N 34°45' E 139°11'612.9
2017-Dec-08 16:30N 34°49' E 139°17'713.0
2017-Dec-08 15:59N 34°54' E 139°22'613.2
2017-Dec-08 15:30N 34°58' E 139°28'714.7
2017-Dec-08 15:01N 35°03' E 139°35'815.0
2017-Dec-08 14:30N 35°08' E 139°42'714.5
2017-Dec-08 14:00N 35°14' E 139°46'612.9
2017-Dec-08 13:31N 35°20' E 139°43'714.6
2017-Dec-08 13:01N 35°27' E 139°43'1 2.0
2017-Dec-08 12:30N 35°28' E 139°43'0 0.0
2017-Dec-08 12:00N 35°28' E 139°43'0 0.0
2017-Dec-08 11:30N 35°28' E 139°43'0 0.0
2017-Dec-08 11:00N 35°28' E 139°43'0 0.1
2017-Dec-08 10:30N 35°28' E 139°43'0 0.1
2017-Dec-08 10:00N 35°28' E 139°43'0 0.0
2017-Dec-08 09:30N 35°28' E 139°43'0 0.1
2017-Dec-08 09:00N 35°28' E 139°43'0 0.0
2017-Dec-08 08:30N 35°28' E 139°43'0 0.1
2017-Dec-08 08:00N 35°28' E 139°43'0 0.1
2017-Dec-08 07:30N 35°28' E 139°43'0 0.0
2017-Dec-08 07:00N 35°28' E 139°43'0 0.1
2017-Dec-08 06:30N 35°28' E 139°43'0 0.0
2017-Dec-08 06:00N 35°28' E 139°43'0 0.0
2017-Dec-08 05:30N 35°28' E 139°43'4 7.6
2017-Dec-08 05:01N 35°27' E 139°47'814.2
2017-Dec-08 04:26N 35°33' E 139°54'613.9
2017-Dec-08 04:00N 35°38' E 139°59'3 0.4
2017-Dec-07 21:33N 35°40' E 139°57'0 4.4
2017-Dec-07 21:30N 35°40' E 139°57'4 7.1
2017-Dec-07 21:00N 35°37' E 139°58'0 0.3
2017-Dec-07 20:13N 35°37' E 139°58'0 0.0
2017-Dec-07 19:55N 35°37' E 139°58'0 0.0
2017-Dec-07 19:19N 35°37' E 139°58'0 0.0
2017-Dec-07 18:55N 35°37' E 139°58'0 0.0
2017-Dec-07 18:25N 35°37' E 139°58'0 0.0
2017-Dec-07 17:55N 35°37' E 139°58'0 0.1
2017-Dec-07 17:30N 35°37' E 139°58'713.2
2017-Dec-07 17:00N 35°31' E 139°53'714.5
2017-Dec-07 16:31N 35°25' E 139°48'612.9
2017-Dec-07 16:00N 35°20' E 139°44'611.9
2017-Dec-07 15:30N 35°14' E 139°47'713.7
2017-Dec-07 15:00N 35°07' E 139°46'714.6
2017-Dec-07 14:31N 35°01' E 139°40'815.5
2017-Dec-07 14:01N 34°57' E 139°32'816.4
2017-Dec-07 13:31N 34°53' E 139°24'1016.5
2017-Dec-07 12:53N 34°46' E 139°14'616.2
2017-Dec-07 12:30N 34°42' E 139°09'815.2
2017-Dec-07 11:57N 34°36' E 139°01'614.9
2017-Dec-07 11:30N 34°32' E 138°55'1315.9
2017-Dec-07 10:41N 34°30' E 138°39'316.4
2017-Dec-07 10:30N 34°29' E 138°35'18313.1
2017-Dec-06 20:30N 33°50' E 134°59'  
2017-Dec-04 10:23N 35°04' E 136°53'0 0.0
2017-Dec-04 09:59N 35°04' E 136°53'0 0.0
2017-Dec-04 09:29N 35°04' E 136°53'0 0.0
2017-Dec-04 08:59N 35°04' E 136°53'0 0.0
2017-Dec-04 08:29N 35°04' E 136°53'0 0.0
2017-Dec-04 07:59N 35°04' E 136°53'0 0.0
2017-Dec-04 07:29N 35°04' E 136°53'0 0.0
2017-Dec-04 06:59N 35°04' E 136°53'0 0.3
2017-Dec-04 06:30N 35°04' E 136°53'611.6
2017-Dec-04 06:01N 35°00' E 136°47'714.1
2017-Dec-04 05:30N 34°53' E 136°47'714.5
2017-Dec-04 05:00N 34°46' E 136°49'714.4
2017-Dec-04 04:29N 34°40' E 136°54'3011.7
2017-Dec-04 01:56N 34°10' E 136°48'9211.6
2017-Dec-03 17:59N 33°50' E 134°60'714.5
2017-Dec-03 17:29N 33°56' E 134°54'715.2
2017-Dec-03 17:00N 34°02' E 134°49'815.2
2017-Dec-03 16:30N 34°08' E 134°44'916.7
2017-Dec-03 15:57N 34°16' E 134°38'715.2
2017-Dec-03 15:30N 34°19' E 134°31'815.2
2017-Dec-03 15:00N 34°21' E 134°22'12 0.7
2017-Dec-02 20:38N 34°26' E 134°08'517.6
2017-Dec-02 20:22N 34°25' E 134°13'617.4
2017-Dec-02 20:00N 34°22' E 134°20'816.8
2017-Dec-02 19:30N 34°18' E 134°29'816.9
2017-Dec-02 19:01N 34°15' E 134°39'917.1
2017-Dec-02 18:30N 34°08' E 134°45'816.2
2017-Dec-02 18:00N 34°02' E 134°51'816.5
2017-Dec-02 17:30N 33°55' E 134°57'916.4
2017-Dec-02 16:58N 33°48' E 135°04'10611.9
2017-Dec-02 08:04N 34°36' E 136°58'116.8
2017-Dec-02 08:00N 34°37' E 136°58'815.7
2017-Dec-02 07:30N 34°41' E 137°06'8 0.8
2017-Dec-01 21:28N 34°44' E 137°15'2 1.2
2017-Dec-01 19:32N 34°43' E 137°12'0 0.0
2017-Dec-01 19:20N 34°43' E 137°12'0 0.0
2017-Dec-01 18:56N 34°43' E 137°12'0 0.0
2017-Dec-01 10:32N 34°43' E 137°12'411.3
2017-Dec-01 10:09N 34°42' E 137°07'3611.8
2017-Dec-01 07:06N 34°09' E 136°48'314.6
2017-Dec-01 06:56N 34°08' E 136°46'8912.0
2017-Nov-30 23:29N 33°51' E 135°00'915.0
2017-Nov-30 22:53N 33°58' E 134°53'615.4
2017-Nov-30 22:30N 34°03' E 134°48'1015.2
2017-Nov-30 21:52N 34°11' E 134°42'514.3
2017-Nov-30 21:30N 34°15' E 134°38'612.7
2017-Nov-30 21:00N 34°20' E 134°33'1 1.3
2017-Nov-30 20:30N 34°20' E 134°32'2 1.1
2017-Nov-30 18:54N 34°20' E 134°30'511.9
2017-Nov-30 18:30N 34°21' E 134°25'1212.7
2017-Nov-30 17:34N 34°25' E 134°11'3 0.2
2017-Nov-30 01:05N 34°26' E 134°08'414.7
2017-Nov-30 00:48N 34°24' E 134°13'  

Dump ship's entire track history